sensor_id;sensor_type;location;lat;lon;timestamp;pressure;altitude;pressure_sealevel;temperature;humidity
35918;BME280;22011;59.912;30.300;2023-01-23T00:01:45;103958.66;;;-1.84;72.18
35918;BME280;22011;59.912;30.300;2023-01-23T00:04:13;103952.53;;;-1.80;72.51
35918;BME280;22011;59.912;30.300;2023-01-23T00:06:40;103943.81;;;-1.79;72.20
35918;BME280;22011;59.912;30.300;2023-01-23T00:09:08;103946.41;;;-1.73;72.59
35918;BME280;22011;59.912;30.300;2023-01-23T00:11:36;103938.53;;;-1.71;72.13
35918;BME280;22011;59.912;30.300;2023-01-23T00:14:05;103933.28;;;-1.67;71.94
35918;BME280;22011;59.912;30.300;2023-01-23T00:16:33;103947.22;;;-1.63;71.96
35918;BME280;22011;59.912;30.300;2023-01-23T00:19:00;103936.75;;;-1.63;71.87
35918;BME280;22011;59.912;30.300;2023-01-23T00:21:28;103943.72;;;-1.60;71.74
35918;BME280;22011;59.912;30.300;2023-01-23T00:23:57;103941.97;;;-1.60;71.65
35918;BME280;22011;59.912;30.300;2023-01-23T00:26:28;103940.19;;;-1.56;71.91
35918;BME280;22011;59.912;30.300;2023-01-23T00:28:57;103939.34;;;-1.61;71.47
35918;BME280;22011;59.912;30.300;2023-01-23T00:31:28;103935.84;;;-1.56;71.84
35918;BME280;22011;59.912;30.300;2023-01-23T00:33:58;103937.56;;;-1.53;71.55
35918;BME280;22011;59.912;30.300;2023-01-23T00:36:28;103943.66;;;-1.50;71.79
35918;BME280;22011;59.912;30.300;2023-01-23T00:38:55;103946.28;;;-1.51;71.77
35918;BME280;22011;59.912;30.300;2023-01-23T00:41:24;103943.66;;;-1.53;71.74
35918;BME280;22011;59.912;30.300;2023-01-23T00:43:52;103947.13;;;-1.49;71.68
35918;BME280;22011;59.912;30.300;2023-01-23T00:46:20;103952.34;;;-1.49;71.71
35918;BME280;22011;59.912;30.300;2023-01-23T00:48:50;103947.13;;;-1.49;71.55
35918;BME280;22011;59.912;30.300;2023-01-23T00:51:18;103953.22;;;-1.50;71.61
35918;BME280;22011;59.912;30.300;2023-01-23T00:53:46;103944.50;;;-1.49;71.51
35918;BME280;22011;59.912;30.300;2023-01-23T00:56:13;103945.41;;;-1.52;71.46
35918;BME280;22011;59.912;30.300;2023-01-23T00:58:41;103942.78;;;-1.52;71.94
35918;BME280;22011;59.912;30.300;2023-01-23T01:01:08;103953.22;;;-1.49;71.79
35918;BME280;22011;59.912;30.300;2023-01-23T01:03:37;103941.91;;;-1.51;71.41
35918;BME280;22011;59.912;30.300;2023-01-23T01:06:09;103938.41;;;-1.51;71.69
35918;BME280;22011;59.912;30.300;2023-01-23T01:08:37;103934.97;;;-1.56;72.00
35918;BME280;22011;59.912;30.300;2023-01-23T01:11:05;103931.47;;;-1.52;72.36
35918;BME280;22011;59.912;30.300;2023-01-23T01:13:33;103924.47;;;-1.49;72.28
35918;BME280;22011;59.912;30.300;2023-01-23T01:16:01;103918.31;;;-1.43;72.41
35918;BME280;22011;59.912;30.300;2023-01-23T01:18:29;103918.28;;;-1.40;72.28
35918;BME280;22011;59.912;30.300;2023-01-23T01:20:57;103916.53;;;-1.38;72.27
35918;BME280;22011;59.912;30.300;2023-01-23T01:23:26;103910.38;;;-1.33;72.57
35918;BME280;22011;59.912;30.300;2023-01-23T01:25:57;103904.25;;;-1.28;72.54
35918;BME280;22011;59.912;30.300;2023-01-23T01:28:25;103902.53;;;-1.29;72.21
35918;BME280;22011;59.912;30.300;2023-01-23T01:30:55;103899.00;;;-1.27;72.51
35918;BME280;22011;59.912;30.300;2023-01-23T01:33:23;103903.38;;;-1.29;72.00
35918;BME280;22011;59.912;30.300;2023-01-23T01:35:51;103905.16;;;-1.31;72.23
35918;BME280;22011;59.912;30.300;2023-01-23T01:38:22;103906.91;;;-1.33;72.10
35918;BME280;22011;59.912;30.300;2023-01-23T01:40:50;103906.91;;;-1.33;72.49
35918;BME280;22011;59.912;30.300;2023-01-23T01:43:20;103897.31;;;-1.33;72.74
35918;BME280;22011;59.912;30.300;2023-01-23T01:46:14;103899.78;;;-1.16;73.31
35918;BME280;22011;59.912;30.300;2023-01-23T01:48:46;103906.03;;;-1.32;72.12
35918;BME280;22011;59.912;30.300;2023-01-23T01:51:21;103899.94;;;-1.33;72.49
35918;BME280;22011;59.912;30.300;2023-01-23T01:53:55;103900.78;;;-1.32;72.59
35918;BME280;22011;59.912;30.300;2023-01-23T01:56:28;103900.81;;;-1.35;72.33
35918;BME280;22011;59.912;30.300;2023-01-23T01:58:59;103893.00;;;-1.38;72.59
35918;BME280;22011;59.912;30.300;2023-01-23T02:01:28;103887.78;;;-1.40;72.54
35918;BME280;22011;59.912;30.300;2023-01-23T02:03:56;103895.66;;;-1.43;72.42
35918;BME280;22011;59.912;30.300;2023-01-23T02:06:24;103892.19;;;-1.46;72.35
35918;BME280;22011;59.912;30.300;2023-01-23T02:08:56;103887.81;;;-1.44;72.48
35918;BME280;22011;59.912;30.300;2023-01-23T02:11:28;103891.34;;;-1.50;72.17
35918;BME280;22011;59.912;30.300;2023-01-23T02:13:56;103889.59;;;-1.48;72.26
35918;BME280;22011;59.912;30.300;2023-01-23T02:16:25;103894.81;;;-1.46;72.06
35918;BME280;22011;59.912;30.300;2023-01-23T02:18:56;103893.72;;;-1.18;72.94
35918;BME280;22011;59.912;30.300;2023-01-23T02:21:24;103886.84;;;-1.31;72.09
35918;BME280;22011;59.912;30.300;2023-01-23T02:24:02;103885.00;;;-1.20;72.34
35918;BME280;22011;59.912;30.300;2023-01-23T02:26:35;103883.03;;;-1.00;72.79
35918;BME280;22011;59.912;30.300;2023-01-23T02:29:04;103871.06;;;-1.22;71.64
35918;BME280;22011;59.912;30.300;2023-01-23T02:31:41;103871.09;;;-1.26;72.09
35918;BME280;22011;59.912;30.300;2023-01-23T02:34:12;103872.88;;;-1.32;72.45
35918;BME280;22011;59.912;30.300;2023-01-23T02:36:42;103882.47;;;-1.29;72.54
35918;BME280;22011;59.912;30.300;2023-01-23T02:39:12;103894.69;;;-1.31;72.01
35918;BME280;22011;59.912;30.300;2023-01-23T02:41:44;103903.31;;;-1.21;72.11
35918;BME280;22011;59.912;30.300;2023-01-23T02:44:14;103910.31;;;-1.22;72.32
35918;BME280;22011;59.912;30.300;2023-01-23T02:46:49;103909.47;;;-1.25;72.19
35918;BME280;22011;59.912;30.300;2023-01-23T02:49:17;103913.00;;;-1.31;72.56
35918;BME280;22011;59.912;30.300;2023-01-23T02:51:45;103913.84;;;-1.27;72.79
35918;BME280;22011;59.912;30.300;2023-01-23T02:54:12;103917.31;;;-1.27;72.83
35918;BME280;22011;59.912;30.300;2023-01-23T02:56:42;103914.69;;;-1.25;72.64
35918;BME280;22011;59.912;30.300;2023-01-23T02:59:09;103905.16;;;-1.31;72.44
35918;BME280;22011;59.912;30.300;2023-01-23T03:02:09;103901.72;;;-1.38;72.53
35918;BME280;22011;59.912;30.300;2023-01-23T03:04:37;103894.78;;;-1.43;72.56
35918;BME280;22011;59.912;30.300;2023-01-23T03:07:04;103892.19;;;-1.46;72.68
35918;BME280;22011;59.912;30.300;2023-01-23T03:09:32;103886.97;;;-1.49;72.60
35918;BME280;22011;59.912;30.300;2023-01-23T03:12:01;103890.44;;;-1.44;72.75
35918;BME280;22011;59.912;30.300;2023-01-23T03:14:29;103879.09;;;-1.43;72.50
35918;BME280;22011;59.912;30.300;2023-01-23T03:16:58;103888.69;;;-1.47;72.11
35918;BME280;22011;59.912;30.300;2023-01-23T03:19:30;103888.69;;;-1.47;72.57
35918;BME280;22011;59.912;30.300;2023-01-23T03:21:58;103891.31;;;-1.45;72.45
35918;BME280;22011;59.912;30.300;2023-01-23T03:24:25;103882.56;;;-1.43;72.44
35918;BME280;22011;59.912;30.300;2023-01-23T03:26:53;103882.59;;;-1.46;72.37
35918;BME280;22011;59.912;30.300;2023-01-23T03:29:25;103887.78;;;-1.41;72.72
35918;BME280;22011;59.912;30.300;2023-01-23T03:32:13;103886.03;;;-1.41;72.71
35918;BME280;22011;59.912;30.300;2023-01-23T03:34:43;103889.50;;;-1.39;72.99
35918;BME280;22011;59.912;30.300;2023-01-23T03:37:11;103892.13;;;-1.37;72.95
35918;BME280;22011;59.912;30.300;2023-01-23T03:39:43;103886.91;;;-1.40;73.13
35918;BME280;22011;59.912;30.300;2023-01-23T03:42:32;103899.97;;;-1.37;73.40
35918;BME280;22011;59.912;30.300;2023-01-23T03:45:04;103906.97;;;-1.39;73.33
35918;BME280;22011;59.912;30.300;2023-01-23T03:47:35;103903.47;;;-1.38;73.19
35918;BME280;22011;59.912;30.300;2023-01-23T03:50:02;103894.66;;;-1.29;73.18
35918;BME280;22011;59.912;30.300;2023-01-23T03:52:35;103897.28;;;-1.28;72.74
35918;BME280;22011;59.912;30.300;2023-01-23T03:55:04;103888.56;;;-1.28;72.82
35918;BME280;22011;59.912;30.300;2023-01-23T03:57:33;103890.31;;;-1.27;73.07
35918;BME280;22011;59.912;30.300;2023-01-23T04:00:17;103898.16;;;-1.29;73.15
35918;BME280;22011;59.912;30.300;2023-01-23T04:02:54;103898.22;;;-1.37;73.29
35918;BME280;22011;59.912;30.300;2023-01-23T04:05:22;103894.66;;;-1.28;73.38
35918;BME280;22011;59.912;30.300;2023-01-23T04:07:49;103898.94;;;-1.19;72.80
35918;BME280;22011;59.912;30.300;2023-01-23T04:10:17;103894.56;;;-1.17;72.57
35918;BME280;22011;59.912;30.300;2023-01-23T04:12:49;103885.91;;;-1.22;72.47
35918;BME280;22011;59.912;30.300;2023-01-23T04:15:19;103885.88;;;-1.19;72.72
35918;BME280;22011;59.912;30.300;2023-01-23T04:17:46;103882.41;;;-1.21;73.38
35918;BME280;22011;59.912;30.300;2023-01-23T04:20:14;103889.38;;;-1.23;73.49
35918;BME280;22011;59.912;30.300;2023-01-23T04:22:43;103898.16;;;-1.29;73.27
35918;BME280;22011;59.912;30.300;2023-01-23T04:25:11;103894.72;;;-1.34;74.06
35918;BME280;22011;59.912;30.300;2023-01-23T04:27:39;103892.06;;;-1.31;73.84
35918;BME280;22011;59.912;30.300;2023-01-23T04:30:09;103885.09;;;-1.30;73.44
35918;BME280;22011;59.912;30.300;2023-01-23T04:32:38;103884.16;;;-1.23;73.73
35918;BME280;22011;59.912;30.300;2023-01-23T04:35:06;103881.53;;;-1.22;73.95
35918;BME280;22011;59.912;30.300;2023-01-23T04:37:37;103890.22;;;-1.20;73.34
35918;BME280;22011;59.912;30.300;2023-01-23T04:40:05;103885.00;;;-1.20;72.91
35918;BME280;22011;59.912;30.300;2023-01-23T04:42:42;103887.56;;;-1.15;72.70
35918;BME280;22011;59.912;30.300;2023-01-23T04:45:20;103886.72;;;-1.16;72.95
35918;BME280;22011;59.912;30.300;2023-01-23T04:48:21;103879.69;;;-1.11;73.12
35918;BME280;22011;59.912;30.300;2023-01-23T04:50:50;103878.88;;;-1.19;72.88
35918;BME280;22011;59.912;30.300;2023-01-23T04:53:18;103877.22;;;-1.27;73.13
35918;BME280;22011;59.912;30.300;2023-01-23T04:55:52;103877.25;;;-1.30;73.27
35918;BME280;22011;59.912;30.300;2023-01-23T04:58:20;103875.53;;;-1.33;73.44
35918;BME280;22011;59.912;30.300;2023-01-23T05:00:48;103880.75;;;-1.32;73.38
35918;BME280;22011;59.912;30.300;2023-01-23T05:03:21;103878.97;;;-1.28;73.59
35918;BME280;22011;59.912;30.300;2023-01-23T05:05:50;103871.72;;;-1.03;74.20
35918;BME280;22011;59.912;30.300;2023-01-23T05:08:17;103869.31;;;-1.20;73.54
35918;BME280;22011;59.912;30.300;2023-01-23T05:10:54;103866.69;;;-1.21;73.33
35918;BME280;22011;59.912;30.300;2023-01-23T05:13:22;103859.75;;;-1.25;73.43
35918;BME280;22011;59.912;30.300;2023-01-23T05:15:49;103861.53;;;-1.27;73.44
35918;BME280;22011;59.912;30.300;2023-01-23T05:18:17;103865.84;;;-1.25;73.68
35918;BME280;22011;59.912;30.300;2023-01-23T05:20:47;103866.63;;;-1.12;73.04
35918;BME280;22011;59.912;30.300;2023-01-23T05:23:15;103864.00;;;-1.14;72.93
35918;BME280;22011;59.912;30.300;2023-01-23T05:25:48;103862.31;;;-1.19;72.95
35918;BME280;22011;59.912;30.300;2023-01-23T05:28:16;103869.34;;;-1.26;73.12
35918;BME280;22011;59.912;30.300;2023-01-23T05:30:48;103859.75;;;-1.25;73.75
35918;BME280;22011;59.912;30.300;2023-01-23T05:33:22;103864.97;;;-1.24;73.98
35918;BME280;22011;59.912;30.300;2023-01-23T05:35:51;103869.31;;;-1.20;74.01
35918;BME280;22011;59.912;30.300;2023-01-23T05:38:18;103872.84;;;-1.25;74.03
35918;BME280;22011;59.912;30.300;2023-01-23T05:40:46;103870.22;;;-1.24;74.09
35918;BME280;22011;59.912;30.300;2023-01-23T05:43:14;103878.94;;;-1.25;74.18
35918;BME280;22011;59.912;30.300;2023-01-23T05:46:00;103874.59;;;-1.26;74.58
35918;BME280;22011;59.912;30.300;2023-01-23T05:48:38;103871.97;;;-1.24;74.71
35918;BME280;22011;59.912;30.300;2023-01-23T05:51:10;103869.34;;;-1.23;74.78
35918;BME280;22011;59.912;30.300;2023-01-23T05:53:38;103873.69;;;-1.23;74.72
35918;BME280;22011;59.912;30.300;2023-01-23T05:56:07;103870.16;;;-1.18;74.92
35918;BME280;22011;59.912;30.300;2023-01-23T05:58:43;103874.47;;;-1.14;74.62
35918;BME280;22011;59.912;30.300;2023-01-23T06:01:17;103878.84;;;-1.14;74.28
35918;BME280;22011;59.912;30.300;2023-01-23T06:04:17;103876.25;;;-1.16;74.10
35918;BME280;22011;59.912;30.300;2023-01-23T06:07:08;103877.91;;;-1.06;74.12
35918;BME280;22011;59.912;30.300;2023-01-23T06:09:37;103877.06;;;-1.11;74.07
35918;BME280;22011;59.912;30.300;2023-01-23T06:12:05;103876.19;;;-1.10;74.12
35918;BME280;22011;59.912;30.300;2023-01-23T06:14:33;103880.59;;;-1.13;73.80
35918;BME280;22011;59.912;30.300;2023-01-23T06:17:02;103884.94;;;-1.14;74.19
35918;BME280;22011;59.912;30.300;2023-01-23T06:19:30;103886.69;;;-1.14;74.31
35918;BME280;22011;59.912;30.300;2023-01-23T06:21:57;103876.22;;;-1.13;74.26
35918;BME280;22011;59.912;30.300;2023-01-23T06:24:27;103880.56;;;-1.10;74.73
35918;BME280;22011;59.912;30.300;2023-01-23T06:26:55;103880.56;;;-1.10;74.76
35918;BME280;22011;59.912;30.300;2023-01-23T06:29:22;103881.41;;;-1.10;74.70
35918;BME280;22011;59.912;30.300;2023-01-23T06:31:51;103890.13;;;-1.09;74.67
35918;BME280;22011;59.912;30.300;2023-01-23T06:34:20;103882.31;;;-1.11;74.43
35918;BME280;22011;59.912;30.300;2023-01-23T06:36:55;103879.69;;;-1.12;74.60
35918;BME280;22011;59.912;30.300;2023-01-23T06:39:23;103878.78;;;-1.08;74.79
35918;BME280;22011;59.912;30.300;2023-01-23T06:41:53;103877.91;;;-1.06;74.64
35918;BME280;22011;59.912;30.300;2023-01-23T06:44:22;103876.22;;;-1.11;74.44
35918;BME280;22011;59.912;30.300;2023-01-23T06:46:51;103884.00;;;-1.05;74.88
35918;BME280;22011;59.912;30.300;2023-01-23T06:49:22;103892.75;;;-1.08;74.77
35918;BME280;22011;59.912;30.300;2023-01-23T06:51:49;103899.75;;;-1.11;74.78
35918;BME280;22011;59.912;30.300;2023-01-23T06:54:17;103893.66;;;-1.12;74.34
35918;BME280;22011;59.912;30.300;2023-01-23T06:56:45;103893.66;;;-1.12;74.22
35918;BME280;22011;59.912;30.300;2023-01-23T06:59:15;103893.63;;;-1.07;74.66
35918;BME280;22011;59.912;30.300;2023-01-23T07:01:43;103897.09;;;-1.07;74.76
35918;BME280;22011;59.912;30.300;2023-01-23T07:04:17;103893.53;;;-1.03;74.53
35918;BME280;22011;59.912;30.300;2023-01-23T07:06:48;103900.56;;;-1.05;74.30
35918;BME280;22011;59.912;30.300;2023-01-23T07:09:17;103897.97;;;-1.06;74.12
35918;BME280;22011;59.912;30.300;2023-01-23T07:11:56;103902.34;;;-1.10;74.30
35918;BME280;22011;59.912;30.300;2023-01-23T07:14:26;103897.03;;;-1.04;74.61
35918;BME280;22011;59.912;30.300;2023-01-23T07:16:54;103894.38;;;-1.01;74.26
35918;BME280;22011;59.912;30.300;2023-01-23T07:19:21;103894.41;;;-1.02;74.06
35918;BME280;22011;59.912;30.300;2023-01-23T07:21:49;103895.38;;;-1.08;73.86
35918;BME280;22011;59.912;30.300;2023-01-23T07:24:17;103884.91;;;-1.11;74.30
35918;BME280;22011;59.912;30.300;2023-01-23T07:26:44;103878.88;;;-1.16;74.13
35918;BME280;22011;59.912;30.300;2023-01-23T07:29:12;103878.00;;;-1.18;74.15
35918;BME280;22011;59.912;30.300;2023-01-23T07:31:40;103883.22;;;-1.15;74.53
35918;BME280;22011;59.912;30.300;2023-01-23T07:34:08;103876.25;;;-1.16;74.46
35918;BME280;22011;59.912;30.300;2023-01-23T07:36:35;103871.88;;;-1.14;74.00
35918;BME280;22011;59.912;30.300;2023-01-23T07:39:03;103865.69;;;-1.07;73.76
35918;BME280;22011;59.912;30.300;2023-01-23T07:41:30;103869.16;;;-1.05;73.83
35918;BME280;22011;59.912;30.300;2023-01-23T07:44:02;103870.94;;;-1.07;74.08
35918;BME280;22011;59.912;30.300;2023-01-23T07:46:29;103861.38;;;-1.11;73.71
35918;BME280;22011;59.912;30.300;2023-01-23T07:48:58;103863.00;;;-1.04;73.97
35918;BME280;22011;59.912;30.300;2023-01-23T07:51:25;103857.84;;;-1.07;73.81
35918;BME280;22011;59.912;30.300;2023-01-23T07:53:53;103866.56;;;-1.08;73.75
35918;BME280;22011;59.912;30.300;2023-01-23T07:56:20;103862.19;;;-1.06;73.99
35918;BME280;22011;59.912;30.300;2023-01-23T07:58:48;103864.75;;;-1.03;74.14
35918;BME280;22011;59.912;30.300;2023-01-23T08:01:17;103860.53;;;-1.13;74.16
35918;BME280;22011;59.912;30.300;2023-01-23T08:03:45;103864.03;;;-1.15;74.23
35918;BME280;22011;59.912;30.300;2023-01-23T08:06:14;103862.22;;;-1.09;74.45
35918;BME280;22011;59.912;30.300;2023-01-23T08:08:42;103855.28;;;-1.13;74.46
35918;BME280;22011;59.912;30.300;2023-01-23T08:11:11;103854.47;;;-1.19;74.47
35918;BME280;22011;59.912;30.300;2023-01-23T08:13:39;103852.72;;;-1.19;74.85
35918;BME280;22011;59.912;30.300;2023-01-23T08:16:07;103854.44;;;-1.16;74.72
35918;BME280;22011;59.912;30.300;2023-01-23T08:18:35;103845.69;;;-1.12;74.60
35918;BME280;22011;59.912;30.300;2023-01-23T08:21:02;103856.13;;;-1.09;74.52
35918;BME280;22011;59.912;30.300;2023-01-23T08:23:32;103851.72;;;-1.06;74.24
35918;BME280;22011;59.912;30.300;2023-01-23T08:26:03;103854.38;;;-1.09;74.66
35918;BME280;22011;59.912;30.300;2023-01-23T08:28:31;103853.50;;;-1.08;74.71
35918;BME280;22011;59.912;30.300;2023-01-23T08:30:59;103860.44;;;-1.05;74.50
35918;BME280;22011;59.912;30.300;2023-01-23T08:33:27;103854.34;;;-1.04;74.71
35918;BME280;22011;59.912;30.300;2023-01-23T08:35:56;103853.47;;;-1.05;74.49
35918;BME280;22011;59.912;30.300;2023-01-23T08:38:24;103850.84;;;-1.06;74.54
35918;BME280;22011;59.912;30.300;2023-01-23T08:40:56;103842.06;;;-1.01;74.78
35918;BME280;22011;59.912;30.300;2023-01-23T08:43:24;103849.00;;;-0.98;74.26
35918;BME280;22011;59.912;30.300;2023-01-23T08:45:53;103851.50;;;-0.87;74.30
35918;BME280;22011;59.912;30.300;2023-01-23T08:48:22;103854.09;;;-0.83;74.12
35918;BME280;22011;59.912;30.300;2023-01-23T08:50:51;103865.44;;;-0.85;73.45
35918;BME280;22011;59.912;30.300;2023-01-23T08:53:19;103860.22;;;-0.87;73.19
35918;BME280;22011;59.912;30.300;2023-01-23T08:55:46;103853.31;;;-0.92;72.77
35918;BME280;22011;59.912;30.300;2023-01-23T08:58:15;103853.25;;;-0.86;73.37
35918;BME280;22011;59.912;30.300;2023-01-23T09:00:42;103860.22;;;-0.85;72.93
35918;BME280;22011;59.912;30.300;2023-01-23T09:03:10;103854.06;;;-0.80;72.93
35918;BME280;22011;59.912;30.300;2023-01-23T09:05:37;103844.41;;;-0.76;72.47
35918;BME280;22011;59.912;30.300;2023-01-23T09:08:05;103847.88;;;-0.74;72.16
35918;BME280;22011;59.912;30.300;2023-01-23T09:10:32;103851.38;;;-0.75;71.85
35918;BME280;22011;59.912;30.300;2023-01-23T09:13:00;103859.25;;;-0.77;71.59
35918;BME280;22011;59.912;30.300;2023-01-23T09:15:29;103857.50;;;-0.76;71.93
35918;BME280;22011;59.912;30.300;2023-01-23T09:17:57;103861.97;;;-0.87;71.66
35918;BME280;22011;59.912;30.300;2023-01-23T09:20:25;103866.38;;;-0.89;71.82
35918;BME280;22011;59.912;30.300;2023-01-23T09:22:54;103870.75;;;-0.91;72.06
35918;BME280;22011;59.912;30.300;2023-01-23T09:25:21;103865.59;;;-0.99;72.21
35918;BME280;22011;59.912;30.300;2023-01-23T09:27:49;103863.06;;;-1.05;72.76
35918;BME280;22011;59.912;30.300;2023-01-23T09:30:16;103863.09;;;-1.10;72.89
35918;BME280;22011;59.912;30.300;2023-01-23T09:32:45;103866.56;;;-1.06;72.98
35918;BME280;22011;59.912;30.300;2023-01-23T09:35:13;103858.78;;;-1.12;72.79
35918;BME280;22011;59.912;30.300;2023-01-23T09:37:40;103863.19;;;-1.17;73.16
35918;BME280;22011;59.912;30.300;2023-01-23T09:40:28;103871.03;;;-1.17;73.26
35918;BME280;22011;59.912;30.300;2023-01-23T09:43:02;103866.63;;;-1.14;73.63
35918;BME280;22011;59.912;30.300;2023-01-23T09:45:35;103858.84;;;-1.20;73.37
35918;BME280;22011;59.912;30.300;2023-01-23T09:48:16;103847.44;;;-1.13;73.73
35918;BME280;22011;59.912;30.300;2023-01-23T09:50:54;103857.97;;;-1.20;73.73
35918;BME280;22011;59.912;30.300;2023-01-23T09:53:24;103865.03;;;-1.32;73.70
35918;BME280;22011;59.912;30.300;2023-01-23T09:55:57;103862.38;;;-1.27;73.90
35918;BME280;22011;59.912;30.300;2023-01-23T09:58:30;103850.16;;;-1.25;74.12
35918;BME280;22011;59.912;30.300;2023-01-23T10:01:01;103851.94;;;-1.27;74.21
35918;BME280;22011;59.912;30.300;2023-01-23T10:03:31;103844.91;;;-1.22;74.19
35918;BME280;22011;59.912;30.300;2023-01-23T10:06:08;103852.72;;;-1.17;74.27
35918;BME280;22011;59.912;30.300;2023-01-23T10:08:43;103851.00;;;-1.23;74.07
35918;BME280;22011;59.912;30.300;2023-01-23T10:11:20;103839.69;;;-1.25;74.26
35918;BME280;22011;59.912;30.300;2023-01-23T10:14:03;103838.78;;;-1.19;74.41
35918;BME280;22011;59.912;30.300;2023-01-23T10:16:52;103832.66;;;-1.17;74.64
35918;BME280;22011;59.912;30.300;2023-01-23T10:19:44;103833.53;;;-1.18;74.34
35918;BME280;22011;59.912;30.300;2023-01-23T10:22:26;103820.47;;;-1.19;74.38
35918;BME280;22011;59.912;30.300;2023-01-23T10:25:06;103813.53;;;-1.25;74.14
35918;BME280;22011;59.912;30.300;2023-01-23T10:27:38;103819.63;;;-1.24;74.00
35918;BME280;22011;59.912;30.300;2023-01-23T10:30:18;103816.13;;;-1.22;74.62
35918;BME280;22011;59.912;30.300;2023-01-23T10:32:50;103822.25;;;-1.23;74.31
35918;BME280;22011;59.912;30.300;2023-01-23T10:35:24;103813.47;;;-1.19;74.45
35918;BME280;22011;59.912;30.300;2023-01-23T10:38:00;103816.94;;;-1.17;74.46
35918;BME280;22011;59.912;30.300;2023-01-23T10:40:28;103822.22;;;-1.20;73.78
35918;BME280;22011;59.912;30.300;2023-01-23T10:43:14;103815.16;;;-1.13;73.39
35918;BME280;22011;59.912;30.300;2023-01-23T10:45:43;103803.81;;;-1.11;73.37
35918;BME280;22011;59.912;30.300;2023-01-23T10:48:37;103808.03;;;-1.01;73.82
35918;BME280;22011;59.912;30.300;2023-01-23T10:51:29;103801.94;;;-1.01;73.90
35918;BME280;22011;59.912;30.300;2023-01-23T10:56:50;103813.41;;;-1.11;73.62
35918;BME280;22011;59.912;30.300;2023-01-23T10:59:25;103808.16;;;-1.11;73.67
35918;BME280;22011;59.912;30.300;2023-01-23T11:02:08;103805.53;;;-1.10;73.99
35918;BME280;22011;59.912;30.300;2023-01-23T11:04:44;103805.69;;;-1.23;73.63
35918;BME280;22011;59.912;30.300;2023-01-23T11:07:15;103810.94;;;-1.25;74.02
35918;BME280;22011;59.912;30.300;2023-01-23T11:09:48;103810.94;;;-1.25;74.04
35918;BME280;22011;59.912;30.300;2023-01-23T11:12:18;103805.72;;;-1.29;73.93
35918;BME280;22011;59.912;30.300;2023-01-23T11:14:46;103809.28;;;-1.37;73.52
35918;BME280;22011;59.912;30.300;2023-01-23T11:17:17;103804.94;;;-1.36;73.61
35918;BME280;22011;59.912;30.300;2023-01-23T11:19:47;103804.09;;;-1.41;73.36
35918;BME280;22011;59.912;30.300;2023-01-23T11:22:27;103791.81;;;-1.32;73.94
35918;BME280;22011;59.912;30.300;2023-01-23T11:24:56;103794.50;;;-1.39;73.44
35918;BME280;22011;59.912;30.300;2023-01-23T11:27:25;103795.31;;;-1.34;73.12
35918;BME280;22011;59.912;30.300;2023-01-23T11:30:21;103795.13;;;-1.16;73.32
35918;BME280;22011;59.912;30.300;2023-01-23T11:32:55;103792.56;;;-1.19;72.29
35918;BME280;22011;59.912;30.300;2023-01-23T11:35:29;103788.16;;;-1.15;72.02
35918;BME280;22011;59.912;30.300;2023-01-23T11:38:04;103793.44;;;-1.20;71.70
35918;BME280;22011;59.912;30.300;2023-01-23T11:40:32;103783.84;;;-1.19;71.57
35918;BME280;22011;59.912;30.300;2023-01-23T11:43:00;103773.34;;;-1.18;71.90
35918;BME280;22011;59.912;30.300;2023-01-23T11:45:36;103775.97;;;-1.16;72.40
35918;BME280;22011;59.912;30.300;2023-01-23T11:48:18;103773.31;;;-1.15;72.51
35918;BME280;22011;59.912;30.300;2023-01-23T11:50:54;103781.16;;;-1.15;72.63
35918;BME280;22011;59.912;30.300;2023-01-23T11:53:33;103783.75;;;-1.12;72.53
35918;BME280;22011;59.912;30.300;2023-01-23T11:56:16;103783.78;;;-1.15;72.58
35918;BME280;22011;59.912;30.300;2023-01-23T11:59:10;103773.34;;;-1.18;72.88
35918;BME280;22011;59.912;30.300;2023-01-23T12:01:54;103780.47;;;-1.32;72.85
35918;BME280;22011;59.912;30.300;2023-01-23T12:04:43;103776.94;;;-1.26;73.19
35918;BME280;22011;59.912;30.300;2023-01-23T12:07:19;103780.53;;;-1.38;72.22
35918;BME280;22011;59.912;30.300;2023-01-23T12:10:00;103772.59;;;-1.27;72.78
35918;BME280;22011;59.912;30.300;2023-01-23T12:12:45;103771.75;;;-1.31;72.88
35918;BME280;22011;59.912;30.300;2023-01-23T12:15:21;103778.81;;;-1.41;72.51
35918;BME280;22011;59.912;30.300;2023-01-23T12:17:59;103779.69;;;-1.42;72.64
35918;BME280;22011;59.912;30.300;2023-01-23T12:20:41;103783.13;;;-1.37;73.11
35918;BME280;22011;59.912;30.300;2023-01-23T12:23:23;103783.94;;;-1.30;73.23
35918;BME280;22011;59.912;30.300;2023-01-23T12:26:00;103785.66;;;-1.26;72.80
35918;BME280;22011;59.912;30.300;2023-01-23T12:28:47;103787.34;;;-1.22;72.75
35918;BME280;22011;59.912;30.300;2023-01-23T12:31:38;103782.06;;;-1.16;72.73
35918;BME280;22011;59.912;30.300;2023-01-23T12:34:22;103768.06;;;-1.12;72.70
35918;BME280;22011;59.912;30.300;2023-01-23T12:37:15;103767.91;;;-1.01;72.51
35918;BME280;22011;59.912;30.300;2023-01-23T12:40:02;103765.34;;;-1.04;71.89
35918;BME280;22011;59.912;30.300;2023-01-23T12:42:41;103759.31;;;-1.11;71.17
35918;BME280;22011;59.912;30.300;2023-01-23T12:45:17;103759.34;;;-1.12;71.08
35918;BME280;22011;59.912;30.300;2023-01-23T12:47:51;103757.66;;;-1.18;70.84
35918;BME280;22011;59.912;30.300;2023-01-23T12:50:23;103752.38;;;-1.15;71.04
35918;BME280;22011;59.912;30.300;2023-01-23T12:52:54;103748.94;;;-1.17;70.56
35918;BME280;22011;59.912;30.300;2023-01-23T12:55:29;103754.16;;;-1.17;70.51
35918;BME280;22011;59.912;30.300;2023-01-23T12:58:00;103762.97;;;-1.25;70.32
35918;BME280;22011;59.912;30.300;2023-01-23T13:00:40;103760.31;;;-1.21;70.53
35918;BME280;22011;59.912;30.300;2023-01-23T13:03:24;103755.13;;;-1.25;70.58
35918;BME280;22011;59.912;30.300;2023-01-23T13:06:06;103748.97;;;-1.21;70.55
35918;BME280;22011;59.912;30.300;2023-01-23T13:08:39;103747.28;;;-1.27;70.10